sensor_id;sensor_type;location;lat;lon;timestamp;temperature;humidity
19928;DHT22;10126;50.876;4.470;2023-04-24T00:00:46;10.00;99.90
19928;DHT22;10126;50.876;4.470;2023-04-24T00:02:47;10.00;99.90
19928;DHT22;10126;50.876;4.470;2023-04-24T00:04:48;10.00;99.90
19928;DHT22;10126;50.876;4.470;2023-04-24T00:06:49;10.10;99.90
19928;DHT22;10126;50.876;4.470;2023-04-24T00:08:54;10.00;99.90
19928;DHT22;10126;50.876;4.470;2023-04-24T00:10:55;10.00;99.90
19928;DHT22;10126;50.876;4.470;2023-04-24T00:12:56;10.00;99.90
19928;DHT22;10126;50.876;4.470;2023-04-24T00:14:56;10.10;99.90
19928;DHT22;10126;50.876;4.470;2023-04-24T00:16:57;10.00;99.90
19928;DHT22;10126;50.876;4.470;2023-04-24T00:18:58;10.00;99.90
19928;DHT22;10126;50.876;4.470;2023-04-24T00:20:58;10.00;99.90
19928;DHT22;10126;50.876;4.470;2023-04-24T00:22:59;10.00;99.90
19928;DHT22;10126;50.876;4.470;2023-04-24T00:25:00;10.00;99.90
19928;DHT22;10126;50.876;4.470;2023-04-24T00:27:01;9.80;99.90
19928;DHT22;10126;50.876;4.470;2023-04-24T00:29:02;9.80;99.90
19928;DHT22;10126;50.876;4.470;2023-04-24T00:31:03;9.80;99.90
19928;DHT22;10126;50.876;4.470;2023-04-24T00:33:04;9.80;99.90
19928;DHT22;10126;50.876;4.470;2023-04-24T00:35:05;9.60;99.90
19928;DHT22;10126;50.876;4.470;2023-04-24T00:37:06;9.60;99.90
19928;DHT22;10126;50.876;4.470;2023-04-24T00:39:06;9.70;99.90
19928;DHT22;10126;50.876;4.470;2023-04-24T00:41:10;9.70;99.90
19928;DHT22;10126;50.876;4.470;2023-04-24T00:43:11;9.70;99.90
19928;DHT22;10126;50.876;4.470;2023-04-24T00:45:12;9.70;99.90
19928;DHT22;10126;50.876;4.470;2023-04-24T00:47:14;9.80;99.90
19928;DHT22;10126;50.876;4.470;2023-04-24T00:49:14;9.70;99.90
19928;DHT22;10126;50.876;4.470;2023-04-24T00:51:15;9.70;99.90
19928;DHT22;10126;50.876;4.470;2023-04-24T00:53:16;9.70;99.90
19928;DHT22;10126;50.876;4.470;2023-04-24T00:55:17;9.80;99.90
19928;DHT22;10126;50.876;4.470;2023-04-24T00:57:18;9.70;99.90
19928;DHT22;10126;50.876;4.470;2023-04-24T00:59:18;9.80;99.90
19928;DHT22;10126;50.876;4.470;2023-04-24T01:01:22;9.80;99.90
19928;DHT22;10126;50.876;4.470;2023-04-24T01:03:26;9.80;99.90
19928;DHT22;10126;50.876;4.470;2023-04-24T01:05:28;9.80;99.90
19928;DHT22;10126;50.876;4.470;2023-04-24T01:07:29;9.80;99.90
19928;DHT22;10126;50.876;4.470;2023-04-24T01:09:30;9.80;99.90
19928;DHT22;10126;50.876;4.470;2023-04-24T01:11:31;9.80;99.90
19928;DHT22;10126;50.876;4.470;2023-04-24T01:13:32;9.70;99.90
19928;DHT22;10126;50.876;4.470;2023-04-24T01:15:33;9.80;99.90
19928;DHT22;10126;50.876;4.470;2023-04-24T01:17:34;9.80;99.90
19928;DHT22;10126;50.876;4.470;2023-04-24T01:19:35;9.70;99.90
19928;DHT22;10126;50.876;4.470;2023-04-24T01:21:36;9.60;99.90
19928;DHT22;10126;50.876;4.470;2023-04-24T01:23:37;9.50;99.90
19928;DHT22;10126;50.876;4.470;2023-04-24T01:25:38;9.60;99.90
19928;DHT22;10126;50.876;4.470;2023-04-24T01:27:39;9.60;99.90
19928;DHT22;10126;50.876;4.470;2023-04-24T01:29:40;9.50;99.90
19928;DHT22;10126;50.876;4.470;2023-04-24T01:31:41;9.50;99.90
19928;DHT22;10126;50.876;4.470;2023-04-24T01:33:42;9.50;99.90
19928;DHT22;10126;50.876;4.470;2023-04-24T01:35:42;9.50;99.90
19928;DHT22;10126;50.876;4.470;2023-04-24T01:37:43;9.50;99.90
19928;DHT22;10126;50.876;4.470;2023-04-24T01:39:44;9.50;99.90
19928;DHT22;10126;50.876;4.470;2023-04-24T01:41:45;9.50;99.90
19928;DHT22;10126;50.876;4.470;2023-04-24T01:43:45;9.50;99.90
19928;DHT22;10126;50.876;4.470;2023-04-24T01:45:46;9.40;99.90
19928;DHT22;10126;50.876;4.470;2023-04-24T01:47:47;9.50;99.90
19928;DHT22;10126;50.876;4.470;2023-04-24T01:49:50;9.50;99.90
19928;DHT22;10126;50.876;4.470;2023-04-24T01:51:50;9.50;99.90
19928;DHT22;10126;50.876;4.470;2023-04-24T01:53:51;9.50;99.90
19928;DHT22;10126;50.876;4.470;2023-04-24T01:55:52;9.50;99.90
19928;DHT22;10126;50.876;4.470;2023-04-24T01:57:55;9.50;99.90
19928;DHT22;10126;50.876;4.470;2023-04-24T01:59:56;9.40;99.90
19928;DHT22;10126;50.876;4.470;2023-04-24T02:01:57;9.40;99.90
19928;DHT22;10126;50.876;4.470;2023-04-24T02:03:58;9.50;99.90
19928;DHT22;10126;50.876;4.470;2023-04-24T02:05:58;9.40;99.90
19928;DHT22;10126;50.876;4.470;2023-04-24T02:07:59;9.50;99.90
19928;DHT22;10126;50.876;4.470;2023-04-24T02:10:00;9.40;99.90
19928;DHT22;10126;50.876;4.470;2023-04-24T02:12:01;9.60;99.90
19928;DHT22;10126;50.876;4.470;2023-04-24T02:14:01;9.50;99.90
19928;DHT22;10126;50.876;4.470;2023-04-24T02:16:02;9.50;99.90
19928;DHT22;10126;50.876;4.470;2023-04-24T02:18:03;9.50;99.90
19928;DHT22;10126;50.876;4.470;2023-04-24T02:20:05;9.40;99.90
19928;DHT22;10126;50.876;4.470;2023-04-24T02:22:05;9.30;99.90
19928;DHT22;10126;50.876;4.470;2023-04-24T02:24:06;9.40;99.90
19928;DHT22;10126;50.876;4.470;2023-04-24T02:26:07;9.40;99.90
19928;DHT22;10126;50.876;4.470;2023-04-24T02:28:07;9.40;99.90
19928;DHT22;10126;50.876;4.470;2023-04-24T02:30:08;9.40;99.90
19928;DHT22;10126;50.876;4.470;2023-04-24T02:32:09;9.40;99.90
19928;DHT22;10126;50.876;4.470;2023-04-24T02:34:13;9.50;99.90
19928;DHT22;10126;50.876;4.470;2023-04-24T02:36:13;9.60;99.90
19928;DHT22;10126;50.876;4.470;2023-04-24T02:38:14;9.40;99.90
19928;DHT22;10126;50.876;4.470;2023-04-24T02:40:15;9.30;99.90
19928;DHT22;10126;50.876;4.470;2023-04-24T02:42:15;9.30;99.90
19928;DHT22;10126;50.876;4.470;2023-04-24T02:44:16;9.40;99.90
19928;DHT22;10126;50.876;4.470;2023-04-24T02:46:17;9.20;99.90
19928;DHT22;10126;50.876;4.470;2023-04-24T02:48:18;9.30;99.90
19928;DHT22;10126;50.876;4.470;2023-04-24T02:50:18;9.20;99.90
19928;DHT22;10126;50.876;4.470;2023-04-24T02:52:19;9.20;99.90
19928;DHT22;10126;50.876;4.470;2023-04-24T02:54:20;9.20;99.90
19928;DHT22;10126;50.876;4.470;2023-04-24T02:56:21;9.20;99.90
19928;DHT22;10126;50.876;4.470;2023-04-24T02:58:24;9.10;99.90
19928;DHT22;10126;50.876;4.470;2023-04-24T03:00:25;9.10;99.90
19928;DHT22;10126;50.876;4.470;2023-04-24T03:02:26;9.10;99.90
19928;DHT22;10126;50.876;4.470;2023-04-24T03:04:26;9.10;99.90
19928;DHT22;10126;50.876;4.470;2023-04-24T03:06:27;9.10;99.90
19928;DHT22;10126;50.876;4.470;2023-04-24T03:08:28;9.10;99.90
19928;DHT22;10126;50.876;4.470;2023-04-24T03:10:29;9.10;99.90
19928;DHT22;10126;50.876;4.470;2023-04-24T03:12:29;9.10;99.90
19928;DHT22;10126;50.876;4.470;2023-04-24T03:14:30;9.20;99.90
19928;DHT22;10126;50.876;4.470;2023-04-24T03:16:31;9.10;99.90
19928;DHT22;10126;50.876;4.470;2023-04-24T03:18:33;9.10;99.90
19928;DHT22;10126;50.876;4.470;2023-04-24T03:20:33;9.10;99.90
19928;DHT22;10126;50.876;4.470;2023-04-24T03:22:34;9.10;99.90
19928;DHT22;10126;50.876;4.470;2023-04-24T03:24:47;9.10;99.90
19928;DHT22;10126;50.876;4.470;2023-04-24T03:26:47;9.10;99.90
19928;DHT22;10126;50.876;4.470;2023-04-24T03:28:51;9.00;99.90
19928;DHT22;10126;50.876;4.470;2023-04-24T03:30:51;9.10;99.90
19928;DHT22;10126;50.876;4.470;2023-04-24T03:32:52;9.10;99.90
19928;DHT22;10126;50.876;4.470;2023-04-24T03:34:53;9.10;99.90
19928;DHT22;10126;50.876;4.470;2023-04-24T03:36:53;9.20;99.90
19928;DHT22;10126;50.876;4.470;2023-04-24T03:38:54;9.20;99.90
19928;DHT22;10126;50.876;4.470;2023-04-24T03:40:55;9.20;99.90
19928;DHT22;10126;50.876;4.470;2023-04-24T03:42:56;9.20;99.90
19928;DHT22;10126;50.876;4.470;2023-04-24T03:44:56;9.20;99.90
19928;DHT22;10126;50.876;4.470;2023-04-24T03:46:58;9.20;99.90
19928;DHT22;10126;50.876;4.470;2023-04-24T03:48:58;9.20;99.90
19928;DHT22;10126;50.876;4.470;2023-04-24T03:50:59;9.10;99.90
19928;DHT22;10126;50.876;4.470;2023-04-24T03:53:00;9.20;99.90
19928;DHT22;10126;50.876;4.470;2023-04-24T03:55:00;9.20;99.90
19928;DHT22;10126;50.876;4.470;2023-04-24T03:57:01;9.20;99.90
19928;DHT22;10126;50.876;4.470;2023-04-24T03:59:02;9.10;99.90
19928;DHT22;10126;50.876;4.470;2023-04-24T04:01:11;9.10;99.90
19928;DHT22;10126;50.876;4.470;2023-04-24T04:03:12;9.10;99.90
19928;DHT22;10126;50.876;4.470;2023-04-24T04:05:14;9.00;99.90
19928;DHT22;10126;50.876;4.470;2023-04-24T04:07:14;9.00;99.90
19928;DHT22;10126;50.876;4.470;2023-04-24T04:09:15;9.00;99.90
19928;DHT22;10126;50.876;4.470;2023-04-24T04:11:16;9.00;99.90
19928;DHT22;10126;50.876;4.470;2023-04-24T04:13:17;9.00;99.90
19928;DHT22;10126;50.876;4.470;2023-04-24T04:15:17;9.10;99.90
19928;DHT22;10126;50.876;4.470;2023-04-24T04:17:18;9.10;99.90
19928;DHT22;10126;50.876;4.470;2023-04-24T04:19:19;9.10;99.90
19928;DHT22;10126;50.876;4.470;2023-04-24T04:21:19;9.20;99.90
19928;DHT22;10126;50.876;4.470;2023-04-24T04:23:20;9.10;99.90
19928;DHT22;10126;50.876;4.470;2023-04-24T04:25:21;9.10;99.90
19928;DHT22;10126;50.876;4.470;2023-04-24T04:27:21;9.00;99.90
19928;DHT22;10126;50.876;4.470;2023-04-24T04:29:22;9.00;99.90
19928;DHT22;10126;50.876;4.470;2023-04-24T04:31:24;9.10;99.90
19928;DHT22;10126;50.876;4.470;2023-04-24T04:33:25;9.00;99.90
19928;DHT22;10126;50.876;4.470;2023-04-24T04:35:26;9.00;99.90
19928;DHT22;10126;50.876;4.470;2023-04-24T04:37:26;9.00;99.90
19928;DHT22;10126;50.876;4.470;2023-04-24T04:39:29;9.10;99.90
19928;DHT22;10126;50.876;4.470;2023-04-24T04:41:33;9.10;99.90
19928;DHT22;10126;50.876;4.470;2023-04-24T04:43:38;9.10;99.90
19928;DHT22;10126;50.876;4.470;2023-04-24T04:45:40;9.10;99.90
19928;DHT22;10126;50.876;4.470;2023-04-24T04:47:41;9.00;99.90
19928;DHT22;10126;50.876;4.470;2023-04-24T04:49:42;9.00;99.90
19928;DHT22;10126;50.876;4.470;2023-04-24T04:51:43;8.90;99.90
19928;DHT22;10126;50.876;4.470;2023-04-24T04:53:43;9.00;99.90
19928;DHT22;10126;50.876;4.470;2023-04-24T04:55:45;9.00;99.90
19928;DHT22;10126;50.876;4.470;2023-04-24T04:57:46;9.10;99.90
19928;DHT22;10126;50.876;4.470;2023-04-24T04:59:50;9.00;99.90
19928;DHT22;10126;50.876;4.470;2023-04-24T05:01:50;8.90;99.90
19928;DHT22;10126;50.876;4.470;2023-04-24T05:03:51;8.90;99.90
19928;DHT22;10126;50.876;4.470;2023-04-24T05:05:51;8.90;99.90
19928;DHT22;10126;50.876;4.470;2023-04-24T05:07:52;8.90;99.90
19928;DHT22;10126;50.876;4.470;2023-04-24T05:09:53;8.90;99.90
19928;DHT22;10126;50.876;4.470;2023-04-24T05:11:53;8.90;99.90
19928;DHT22;10126;50.876;4.470;2023-04-24T05:13:54;8.80;99.90
19928;DHT22;10126;50.876;4.470;2023-04-24T05:15:55;8.70;99.90
19928;DHT22;10126;50.876;4.470;2023-04-24T05:17:56;8.70;99.90
19928;DHT22;10126;50.876;4.470;2023-04-24T05:19:56;8.80;99.90
19928;DHT22;10126;50.876;4.470;2023-04-24T05:21:57;8.80;99.90
19928;DHT22;10126;50.876;4.470;2023-04-24T05:23:57;8.80;99.90
19928;DHT22;10126;50.876;4.470;2023-04-24T05:25:58;8.80;99.90
19928;DHT22;10126;50.876;4.470;2023-04-24T05:27:59;8.80;99.90
19928;DHT22;10126;50.876;4.470;2023-04-24T05:29:59;8.90;99.90
19928;DHT22;10126;50.876;4.470;2023-04-24T05:32:00;8.80;99.90
19928;DHT22;10126;50.876;4.470;2023-04-24T05:34:01;8.80;99.90
19928;DHT22;10126;50.876;4.470;2023-04-24T05:36:02;8.70;99.90
19928;DHT22;10126;50.876;4.470;2023-04-24T05:38:02;8.70;99.90
19928;DHT22;10126;50.876;4.470;2023-04-24T05:40:04;8.70;99.90
19928;DHT22;10126;50.876;4.470;2023-04-24T05:42:05;8.60;99.90
19928;DHT22;10126;50.876;4.470;2023-04-24T05:44:06;8.70;99.90
19928;DHT22;10126;50.876;4.470;2023-04-24T05:46:07;8.80;99.90
19928;DHT22;10126;50.876;4.470;2023-04-24T05:48:07;8.70;99.90
19928;DHT22;10126;50.876;4.470;2023-04-24T05:50:08;8.70;99.90
19928;DHT22;10126;50.876;4.470;2023-04-24T05:52:09;8.60;99.90
19928;DHT22;10126;50.876;4.470;2023-04-24T05:54:10;8.60;99.90
19928;DHT22;10126;50.876;4.470;2023-04-24T05:56:12;8.70;99.90
19928;DHT22;10126;50.876;4.470;2023-04-24T05:58:13;8.70;99.90
19928;DHT22;10126;50.876;4.470;2023-04-24T06:00:14;8.70;99.90
19928;DHT22;10126;50.876;4.470;2023-04-24T06:02:15;8.80;99.90
19928;DHT22;10126;50.876;4.470;2023-04-24T06:04:16;8.80;99.90
19928;DHT22;10126;50.876;4.470;2023-04-24T06:06:16;8.90;99.90
19928;DHT22;10126;50.876;4.470;2023-04-24T06:08:17;8.90;99.90
19928;DHT22;10126;50.876;4.470;2023-04-24T06:10:18;8.90;99.90
19928;DHT22;10126;50.876;4.470;2023-04-24T06:12:18;8.90;99.90
19928;DHT22;10126;50.876;4.470;2023-04-24T06:14:19;8.80;99.90
19928;DHT22;10126;50.876;4.470;2023-04-24T06:16:20;8.70;99.90
19928;DHT22;10126;50.876;4.470;2023-04-24T06:18:21;8.70;99.90
19928;DHT22;10126;50.876;4.470;2023-04-24T06:20:22;8.60;99.90
19928;DHT22;10126;50.876;4.470;2023-04-24T06:22:22;8.70;99.90
19928;DHT22;10126;50.876;4.470;2023-04-24T06:24:27;8.60;99.90
19928;DHT22;10126;50.876;4.470;2023-04-24T06:26:28;8.60;99.90
19928;DHT22;10126;50.876;4.470;2023-04-24T06:28:28;8.70;99.90
19928;DHT22;10126;50.876;4.470;2023-04-24T06:30:29;8.80;99.90
19928;DHT22;10126;50.876;4.470;2023-04-24T06:32:30;8.70;99.90
19928;DHT22;10126;50.876;4.470;2023-04-24T06:34:31;8.80;99.90
19928;DHT22;10126;50.876;4.470;2023-04-24T06:36:33;8.90;99.90
19928;DHT22;10126;50.876;4.470;2023-04-24T06:38:35;8.90;99.90
19928;DHT22;10126;50.876;4.470;2023-04-24T06:40:36;8.90;99.90
19928;DHT22;10126;50.876;4.470;2023-04-24T06:42:37;8.80;99.90
19928;DHT22;10126;50.876;4.470;2023-04-24T06:44:38;8.90;99.90
19928;DHT22;10126;50.876;4.470;2023-04-24T06:46:41;8.90;99.90
19928;DHT22;10126;50.876;4.470;2023-04-24T06:48:42;8.90;99.90
19928;DHT22;10126;50.876;4.470;2023-04-24T06:50:42;8.80;99.90
19928;DHT22;10126;50.876;4.470;2023-04-24T06:52:43;8.90;99.90
19928;DHT22;10126;50.876;4.470;2023-04-24T06:54:44;8.90;99.90
19928;DHT22;10126;50.876;4.470;2023-04-24T06:56:45;8.90;99.90
19928;DHT22;10126;50.876;4.470;2023-04-24T06:58:48;8.90;99.90
19928;DHT22;10126;50.876;4.470;2023-04-24T07:00:48;9.00;99.90
19928;DHT22;10126;50.876;4.470;2023-04-24T07:02:49;8.90;99.90
19928;DHT22;10126;50.876;4.470;2023-04-24T07:04:50;8.90;99.90
19928;DHT22;10126;50.876;4.470;2023-04-24T07:06:51;9.10;99.90
19928;DHT22;10126;50.876;4.470;2023-04-24T07:08:51;9.10;99.90
19928;DHT22;10126;50.876;4.470;2023-04-24T07:10:52;9.10;99.90
19928;DHT22;10126;50.876;4.470;2023-04-24T07:12:53;9.20;99.90
19928;DHT22;10126;50.876;4.470;2023-04-24T07:14:54;9.20;99.90
19928;DHT22;10126;50.876;4.470;2023-04-24T07:16:54;9.20;99.90
19928;DHT22;10126;50.876;4.470;2023-04-24T07:18:57;9.20;99.90
19928;DHT22;10126;50.876;4.470;2023-04-24T07:20:58;9.20;99.90
19928;DHT22;10126;50.876;4.470;2023-04-24T07:22:58;9.10;99.90
19928;DHT22;10126;50.876;4.470;2023-04-24T07:24:59;9.10;99.90
19928;DHT22;10126;50.876;4.470;2023-04-24T07:26:59;9.20;99.90
19928;DHT22;10126;50.876;4.470;2023-04-24T07:29:01;9.20;99.90
19928;DHT22;10126;50.876;4.470;2023-04-24T07:31:02;9.20;99.90
19928;DHT22;10126;50.876;4.470;2023-04-24T07:33:02;9.30;99.90
19928;DHT22;10126;50.876;4.470;2023-04-24T07:35:03;9.40;99.90
19928;DHT22;10126;50.876;4.470;2023-04-24T07:37:04;9.30;99.90
19928;DHT22;10126;50.876;4.470;2023-04-24T07:39:05;9.20;99.90
19928;DHT22;10126;50.876;4.470;2023-04-24T07:41:06;9.20;99.90
19928;DHT22;10126;50.876;4.470;2023-04-24T07:43:06;9.40;99.90
19928;DHT22;10126;50.876;4.470;2023-04-24T07:45:07;9.40;99.90
19928;DHT22;10126;50.876;4.470;2023-04-24T07:47:08;9.40;99.90
19928;DHT22;10126;50.876;4.470;2023-04-24T07:49:09;9.40;99.90
19928;DHT22;10126;50.876;4.470;2023-04-24T07:51:10;9.70;99.90
19928;DHT22;10126;50.876;4.470;2023-04-24T07:53:13;9.80;99.90
19928;DHT22;10126;50.876;4.470;2023-04-24T07:55:14;10.00;99.90
19928;DHT22;10126;50.876;4.470;2023-04-24T07:57:15;10.30;99.90
19928;DHT22;10126;50.876;4.470;2023-04-24T07:59:15;10.60;99.90
19928;DHT22;10126;50.876;4.470;2023-04-24T08:01:18;11.10;99.90
19928;DHT22;10126;50.876;4.470;2023-04-24T08:03:19;11.80;99.90
19928;DHT22;10126;50.876;4.470;2023-04-24T08:05:20;12.20;99.90
19928;DHT22;10126;50.876;4.470;2023-04-24T08:07:21;12.20;99.90
19928;DHT22;10126;50.876;4.470;2023-04-24T08:09:22;12.10;99.90
19928;DHT22;10126;50.876;4.470;2023-04-24T08:11:22;12.30;99.90
19928;DHT22;10126;50.876;4.470;2023-04-24T08:13:23;12.30;99.90
19928;DHT22;10126;50.876;4.470;2023-04-24T08:15:24;12.10;99.90
19928;DHT22;10126;50.876;4.470;2023-04-24T08:17:25;11.80;99.90
19928;DHT22;10126;50.876;4.470;2023-04-24T08:19:26;11.50;99.90
19928;DHT22;10126;50.876;4.470;2023-04-24T08:21:26;11.40;99.90
19928;DHT22;10126;50.876;4.470;2023-04-24T08:23:27;11.40;99.90
19928;DHT22;10126;50.876;4.470;2023-04-24T08:25:29;11.30;99.90
19928;DHT22;10126;50.876;4.470;2023-04-24T08:27:29;11.10;99.90
19928;DHT22;10126;50.876;4.470;2023-04-24T08:29:30;11.10;99.90
19928;DHT22;10126;50.876;4.470;2023-04-24T08:31:31;11.00;99.90
19928;DHT22;10126;50.876;4.470;2023-04-24T08:33:31;11.60;99.90
19928;DHT22;10126;50.876;4.470;2023-04-24T08:35:34;12.60;99.90
19928;DHT22;10126;50.876;4.470;2023-04-24T08:37:35;13.40;99.90
19928;DHT22;10126;50.876;4.470;2023-04-24T08:39:36;13.40;99.90
19928;DHT22;10126;50.876;4.470;2023-04-24T08:41:37;14.60;99.90
19928;DHT22;10126;50.876;4.470;2023-04-24T08:43:42;15.30;99.90
19928;DHT22;10126;50.876;4.470;2023-04-24T08:45:43;15.50;99.90
19928;DHT22;10126;50.876;4.470;2023-04-24T08:47:44;14.90;99.90
19928;DHT22;10126;50.876;4.470;2023-04-24T08:49:48;14.00;99.90
19928;DHT22;10126;50.876;4.470;2023-04-24T08:51:49;13.40;99.90
19928;DHT22;10126;50.876;4.470;2023-04-24T08:53:52;12.60;99.90
19928;DHT22;10126;50.876;4.470;2023-04-24T08:55:54;12.20;99.90
19928;DHT22;10126;50.876;4.470;2023-04-24T08:57:55;12.20;99.90
19928;DHT22;10126;50.876;4.470;2023-04-24T08:59:58;12.10;99.90
19928;DHT22;10126;50.876;4.470;2023-04-24T09:02:00;12.00;99.90
19928;DHT22;10126;50.876;4.470;2023-04-24T09:04:03;12.50;99.90
19928;DHT22;10126;50.876;4.470;2023-04-24T09:06:05;13.60;99.90
19928;DHT22;10126;50.876;4.470;2023-04-24T09:08:06;14.50;99.90
19928;DHT22;10126;50.876;4.470;2023-04-24T09:10:08;14.90;99.90
19928;DHT22;10126;50.876;4.470;2023-04-24T09:12:09;15.10;99.90
19928;DHT22;10126;50.876;4.470;2023-04-24T09:14:10;15.40;99.90
19928;DHT22;10126;50.876;4.470;2023-04-24T09:16:11;15.70;99.90
19928;DHT22;10126;50.876;4.470;2023-04-24T09:18:12;15.80;99.90
19928;DHT22;10126;50.876;4.470;2023-04-24T09:20:13;16.70;99.90
19928;DHT22;10126;50.876;4.470;2023-04-24T09:22:15;17.20;99.90
19928;DHT22;10126;50.876;4.470;2023-04-24T09:24:17;16.50;99.90
19928;DHT22;10126;50.876;4.470;2023-04-24T09:26:19;15.60;99.90
19928;DHT22;10126;50.876;4.470;2023-04-24T09:28:29;14.60;99.90
19928;DHT22;10126;50.876;4.470;2023-04-24T09:30:30;13.40;99.90
19928;DHT22;10126;50.876;4.470;2023-04-24T09:32:31;12.70;99.90
19928;DHT22;10126;50.876;4.470;2023-04-24T09:34:33;12.50;99.90
19928;DHT22;10126;50.876;4.470;2023-04-24T09:36:40;13.00;99.90
19928;DHT22;10126;50.876;4.470;2023-04-24T09:38:41;14.00;99.90
19928;DHT22;10126;50.876;4.470;2023-04-24T09:40:42;13.70;99.90
19928;DHT22;10126;50.876;4.470;2023-04-24T09:42:56;13.40;99.90
19928;DHT22;10126;50.876;4.470;2023-04-24T09:44:58;12.80;99.90
19928;DHT22;10126;50.876;4.470;2023-04-24T09:46:59;12.50;99.90
19928;DHT22;10126;50.876;4.470;2023-04-24T09:49:09;12.20;99.90
19928;DHT22;10126;50.876;4.470;2023-04-24T09:51:12;12.00;99.90
19928;DHT22;10126;50.876;4.470;2023-04-24T09:53:13;12.10;99.90
19928;DHT22;10126;50.876;4.470;2023-04-24T09:55:19;13.60;99.90
19928;DHT22;10126;50.876;4.470;2023-04-24T09:57:19;14.70;99.90
19928;DHT22;10126;50.876;4.470;2023-04-24T09:59:20;14.60;99.90
19928;DHT22;10126;50.876;4.470;2023-04-24T10:01:30;14.10;99.90
19928;DHT22;10126;50.876;4.470;2023-04-24T10:03:32;14.00;99.90
19928;DHT22;10126;50.876;4.470;2023-04-24T10:05:35;13.90;99.90
19928;DHT22;10126;50.876;4.470;2023-04-24T10:07:37;14.20;99.90
19928;DHT22;10126;50.876;4.470;2023-04-24T10:09:38;13.80;99.90
19928;DHT22;10126;50.876;4.470;2023-04-24T10:11:45;13.50;99.90
19928;DHT22;10126;50.876;4.470;2023-04-24T10:13:46;13.30;99.90
19928;DHT22;10126;50.876;4.470;2023-04-24T10:15:48;12.90;99.90
19928;DHT22;10126;50.876;4.470;2023-04-24T10:17:50;12.70;99.90
19928;DHT22;10126;50.876;4.470;2023-04-24T10:19:54;12.70;99.90
19928;DHT22;10126;50.876;4.470;2023-04-24T10:21:56;12.90;99.90
19928;DHT22;10126;50.876;4.470;2023-04-24T10:23:57;12.90;99.90
19928;DHT22;10126;50.876;4.470;2023-04-24T10:26:00;13.00;99.90
19928;DHT22;10126;50.876;4.470;2023-04-24T10:28:02;12.90;99.90
19928;DHT22;10126;50.876;4.470;2023-04-24T10:30:03;12.80;99.90
19928;DHT22;10126;50.876;4.470;2023-04-24T10:32:07;12.60;99.90
19928;DHT22;10126;50.876;4.470;2023-04-24T10:34:09;12.70;99.90
19928;DHT22;10126;50.876;4.470;2023-04-24T10:36:10;12.70;99.90
19928;DHT22;10126;50.876;4.470;2023-04-24T10:38:13;12.70;99.90
19928;DHT22;10126;50.876;4.470;2023-04-24T10:40:19;12.90;99.90
19928;DHT22;10126;50.876;4.470;2023-04-24T10:42:27;13.30;99.90
19928;DHT22;10126;50.876;4.470;2023-04-24T10:44:36;13.50;99.90
19928;DHT22;10126;50.876;4.470;2023-04-24T10:46:38;13.60;99.90
19928;DHT22;10126;50.876;4.470;2023-04-24T10:48:42;13.70;99.90
19928;DHT22;10126;50.876;4.470;2023-04-24T10:50:46;13.30;99.90
19928;DHT22;10126;50.876;4.470;2023-04-24T10:52:48;13.30;99.90
19928;DHT22;10126;50.876;4.470;2023-04-24T10:54:51;13.30;99.90
19928;DHT22;10126;50.876;4.470;2023-04-24T10:56:52;13.70;99.90
19928;DHT22;10126;50.876;4.470;2023-04-24T10:58:53;14.10;99.90
19928;DHT22;10126;50.876;4.470;2023-04-24T11:00:58;14.20;99.90
19928;DHT22;10126;50.876;4.470;2023-04-24T11:02:59;14.30;99.90
19928;DHT22;10126;50.876;4.470;2023-04-24T11:05:03;14.30;99.90
19928;DHT22;10126;50.876;4.470;2023-04-24T11:07:04;14.40;99.90
19928;DHT22;10126;50.876;4.470;2023-04-24T11:09:09;14.00;99.90
19928;DHT22;10126;50.876;4.470;2023-04-24T11:13:16;13.90;99.90
19928;DHT22;10126;50.876;4.470;2023-04-24T11:15:17;13.50;99.90
19928;DHT22;10126;50.876;4.470;2023-04-24T11:19:31;13.40;99.90
19928;DHT22;10126;50.876;4.470;2023-04-24T11:21:42;13.50;99.90
19928;DHT22;10126;50.876;4.470;2023-04-24T11:23:44;13.90;99.90
19928;DHT22;10126;50.876;4.470;2023-04-24T11:25:44;14.10;99.90
19928;DHT22;10126;50.876;4.470;2023-04-24T11:27:47;14.20;99.90
19928;DHT22;10126;50.876;4.470;2023-04-24T11:29:58;14.30;99.90
19928;DHT22;10126;50.876;4.470;2023-04-24T11:32:15;14.50;99.90
19928;DHT22;10126;50.876;4.470;2023-04-24T11:34:18;14.60;99.90
19928;DHT22;10126;50.876;4.470;2023-04-24T11:36:19;14.40;99.90
19928;DHT22;10126;50.876;4.470;2023-04-24T11:38:21;14.10;99.90
19928;DHT22;10126;50.876;4.470;2023-04-24T11:40:22;13.70;99.90
19928;DHT22;10126;50.876;4.470;2023-04-24T11:42:23;13.60;99.90
19928;DHT22;10126;50.876;4.470;2023-04-24T11:44:26;13.80;99.90
19928;DHT22;10126;50.876;4.470;2023-04-24T11:46:28;14.00;99.90
19928;DHT22;10126;50.876;4.470;2023-04-24T11:48:30;14.00;99.90
19928;DHT22;10126;50.876;4.470;2023-04-24T11:50:36;13.90;99.90
19928;DHT22;10126;50.876;4.470;2023-04-24T11:52:39;13.80;99.90
19928;DHT22;10126;50.876;4.470;2023-04-24T11:54:47;13.80;99.90
19928;DHT22;10126;50.876;4.470;2023-04-24T11:56:49;13.70;99.90
19928;DHT22;10126;50.876;4.470;2023-04-24T11:58:52;13.70;99.90
19928;DHT22;10126;50.876;4.470;2023-04-24T12:00:57;13.90;99.90
19928;DHT22;10126;50.876;4.470;2023-04-24T12:03:09;13.80;99.90
19928;DHT22;10126;50.876;4.470;2023-04-24T12:05:24;13.60;99.90
19928;DHT22;10126;50.876;4.470;2023-04-24T12:07:29;13.40;99.90
19928;DHT22;10126;50.876;4.470;2023-04-24T12:09:43;13.50;99.90
19928;DHT22;10126;50.876;4.470;2023-04-24T12:11:55;13.60;99.90
19928;DHT22;10126;50.876;4.470;2023-04-24T12:13:57;13.60;99.90
19928;DHT22;10126;50.876;4.470;2023-04-24T12:15:58;13.70;99.90
19928;DHT22;10126;50.876;4.470;2023-04-24T12:17:59;13.70;99.90
19928;DHT22;10126;50.876;4.470;2023-04-24T12:20:01;13.80;99.90
19928;DHT22;10126;50.876;4.470;2023-04-24T12:22:06;13.70;99.90
19928;DHT22;10126;50.876;4.470;2023-04-24T12:24:07;13.90;99.90
19928;DHT22;10126;50.876;4.470;2023-04-24T12:26:08;14.10;99.90
19928;DHT22;10126;50.876;4.470;2023-04-24T12:28:12;14.40;99.90
19928;DHT22;10126;50.876;4.470;2023-04-24T12:30:15;14.20;99.90
19928;DHT22;10126;50.876;4.470;2023-04-24T12:32:16;14.00;99.90
19928;DHT22;10126;50.876;4.470;2023-04-24T12:34:21;14.30;99.90
19928;DHT22;10126;50.876;4.470;2023-04-24T12:36:22;14.40;99.90
19928;DHT22;10126;50.876;4.470;2023-04-24T12:38:25;14.50;99.90
19928;DHT22;10126;50.876;4.470;2023-04-24T12:40:26;14.50;99.90
19928;DHT22;10126;50.876;4.470;2023-04-24T12:42:27;14.30;99.90
19928;DHT22;10126;50.876;4.470;2023-04-24T12:44:32;14.40;99.90
19928;DHT22;10126;50.876;4.470;2023-04-24T12:46:34;14.10;99.90
19928;DHT22;10126;50.876;4.470;2023-04-24T12:48:35;13.90;99.90
19928;DHT22;10126;50.876;4.470;2023-04-24T12:50:36;13.90;99.90
19928;DHT22;10126;50.876;4.470;2023-04-24T12:52:37;13.80;99.90
19928;DHT22;10126;50.876;4.470;2023-04-24T12:54:38;13.60;99.90
19928;DHT22;10126;50.876;4.470;2023-04-24T12:56:38;13.30;99.90
19928;DHT22;10126;50.876;4.470;2023-04-24T12:58:39;13.40;99.90
19928;DHT22;10126;50.876;4.470;2023-04-24T13:00:40;13.40;99.90